Time;durP1;ratioP1;P1;durP2;ratioP2;P2;SDS_P1;SDS_P2;PMS_P1;PMS_P2;Temp;Humidity;BMP_temperature;BMP_pressure;BME280_temperature;BME280_humidity;BME280_pressure;Samples;Min_cycle;Max_cycle;Signal;HPM_P1;HPM_P2
2023/12/07 00:01:50;;;;;;;6.47;5.40;;;5.50;99.90;;;;;;5058832;28;20228;-55
2023/12/07 00:04:17;;;;;;;8.67;5.87;;;5.40;99.90;;;;;;5058870;28;20225;-55
2023/12/07 00:06:45;;;;;;;7.37;5.83;;;5.50;99.90;;;;;;5062245;28;20204;-54
2023/12/07 00:09:11;;;;;;;8.47;5.70;;;5.50;99.90;;;;;;5062128;28;20211;-54
2023/12/07 00:11:38;;;;;;;7.23;5.83;;;5.50;99.90;;;;;;5059452;28;20221;-56
2023/12/07 00:14:05;;;;;;;7.63;6.33;;;5.50;99.90;;;;;;5058790;28;20208;-56
2023/12/07 00:16:32;;;;;;;7.47;5.77;;;5.60;99.90;;;;;;5060304;28;20228;-55
2023/12/07 00:18:59;;;;;;;9.70;6.27;;;5.60;99.90;;;;;;5062005;28;20323;-55
2023/12/07 00:21:25;;;;;;;8.00;6.00;;;5.50;99.90;;;;;;5061134;28;20236;-56
2023/12/07 00:23:54;;;;;;;7.37;6.00;;;5.60;99.90;;;;;;5058824;28;20246;-54
2023/12/07 00:26:20;;;;;;;7.70;6.30;;;5.50;99.90;;;;;;5058948;28;20229;-57
2023/12/07 00:28:47;;;;;;;10.20;8.13;;;5.50;99.90;;;;;;5062509;28;20209;-58
2023/12/07 00:31:14;;;;;;;8.60;6.50;;;5.50;99.90;;;;;;5062144;28;20255;-56
2023/12/07 00:33:41;;;;;;;9.70;7.27;;;5.40;99.90;;;;;;5059130;28;20240;-54
2023/12/07 00:36:09;;;;;;;9.20;6.07;;;5.40;99.90;;;;;;5058774;28;20209;-54
2023/12/07 00:38:36;;;;;;;8.13;6.60;;;5.40;99.90;;;;;;5060562;28;20288;-56
2023/12/07 00:41:05;;;;;;;11.70;6.70;;;5.30;99.90;;;;;;5062108;28;20308;-55
2023/12/07 00:43:31;;;;;;;8.77;7.10;;;5.30;99.90;;;;;;5060491;28;20212;-57
2023/12/07 00:45:58;;;;;;;8.40;6.53;;;5.40;99.90;;;;;;5060824;28;20208;-55
2023/12/07 00:48:25;;;;;;;8.80;6.63;;;5.30;99.90;;;;;;5063194;28;20205;-56
2023/12/07 00:50:51;;;;;;;9.27;6.63;;;5.30;99.90;;;;;;5065428;28;20626;-56
2023/12/07 00:53:18;;;;;;;7.27;6.20;;;5.30;99.90;;;;;;5065703;28;20292;-56
2023/12/07 00:55:45;;;;;;;9.40;6.83;;;5.20;99.90;;;;;;5062207;28;20200;-55
2023/12/07 00:58:13;;;;;;;11.63;7.00;;;5.20;99.90;;;;;;5061979;28;20259;-56
2023/12/07 01:00:40;;;;;;;9.67;7.10;;;5.20;99.90;;;;;;5064603;28;20213;-56
2023/12/07 01:03:07;;;;;;;8.17;5.97;;;5.20;99.90;;;;;;5065809;28;20248;-56
2023/12/07 01:05:33;;;;;;;8.57;7.00;;;5.20;99.90;;;;;;5063698;28;20224;-56
2023/12/07 01:08:00;;;;;;;8.67;6.97;;;5.20;99.90;;;;;;5062027;28;20213;-55
2023/12/07 01:10:27;;;;;;;8.13;6.43;;;5.30;99.90;;;;;;5062581;28;20221;-55
2023/12/07 01:12:54;;;;;;;9.60;6.77;;;5.20;99.90;;;;;;5065061;28;20229;-55
2023/12/07 01:15:22;;;;;;;9.17;6.57;;;5.30;99.90;;;;;;5065581;28;20267;-56
2023/12/07 01:17:48;;;;;;;9.27;6.93;;;5.30;99.90;;;;;;5061758;28;20644;-56
2023/12/07 01:20:15;;;;;;;8.17;6.80;;;5.20;99.90;;;;;;5061924;28;20206;-55
2023/12/07 01:22:42;;;;;;;9.50;7.13;;;5.20;99.90;;;;;;5064347;28;20287;-57
2023/12/07 01:25:09;;;;;;;8.83;6.70;;;5.20;99.90;;;;;;5065232;28;20509;-55
2023/12/07 01:27:36;;;;;;;8.47;6.53;;;5.30;99.90;;;;;;5062553;28;20262;-56
2023/12/07 01:30:04;;;;;;;10.63;7.23;;;5.30;99.90;;;;;;5061734;28;20597;-55
2023/12/07 01:32:32;;;;;;;8.80;6.70;;;5.20;99.90;;;;;;5062677;28;20313;-56
2023/12/07 01:34:59;;;;;;;8.17;6.67;;;5.20;99.90;;;;;;5064923;28;20215;-54
2023/12/07 01:37:27;;;;;;;8.87;7.20;;;5.20;99.90;;;;;;5063713;28;20217;-53
2023/12/07 01:39:54;;;;;;;9.50;7.10;;;5.20;99.90;;;;;;5061103;28;20216;-55
2023/12/07 01:42:20;;;;;;;8.23;6.63;;;5.20;99.90;;;;;;5061034;28;20278;-54
2023/12/07 01:44:47;;;;;;;10.37;6.87;;;5.20;99.90;;;;;;5064696;28;20307;-54
2023/12/07 01:47:14;;;;;;;9.47;7.03;;;5.20;99.90;;;;;;5064353;28;20270;-53
2023/12/07 01:49:42;;;;;;;11.27;7.37;;;5.20;99.90;;;;;;5062000;28;20212;-54
2023/12/07 01:52:10;;;;;;;10.20;7.10;;;5.20;99.90;;;;;;5060992;28;20241;-55
2023/12/07 01:54:37;;;;;;;9.40;6.80;;;5.30;99.90;;;;;;5062851;28;20256;-54
2023/12/07 01:57:05;;;;;;;9.87;7.33;;;5.30;99.90;;;;;;5063431;28;20259;-54
2023/12/07 01:59:31;;;;;;;8.97;7.07;;;5.20;99.90;;;;;;5063495;28;20216;-54
2023/12/07 02:01:58;;;;;;;8.80;7.10;;;5.30;99.90;;;;;;5060624;28;20222;-54
2023/12/07 02:04:25;;;;;;;9.00;7.33;;;5.20;99.90;;;;;;5061024;28;20226;-54
2023/12/07 02:06:57;;;;;;;9.17;7.43;;;5.20;99.90;;;;;;5064273;28;20212;-54
2023/12/07 02:09:24;;;;;;;9.90;7.33;;;5.30;99.90;;;;;;5063834;28;20209;-53
2023/12/07 02:11:51;;;;;;;10.27;7.30;;;5.30;99.90;;;;;;5061000;28;20245;-54
2023/12/07 02:14:18;;;;;;;9.10;7.30;;;5.30;99.90;;;;;;5060915;28;20197;-54
2023/12/07 02:16:49;;;;;;;10.37;7.30;;;5.30;99.90;;;;;;5063538;28;20205;-55
2023/12/07 02:19:36;;;;;;;9.67;7.10;;;5.20;99.90;;;;;;5063942;28;20292;-54
2023/12/07 02:22:08;;;;;;;9.77;7.30;;;5.20;99.90;;;;;;5060343;28;20230;-54
2023/12/07 02:24:38;;;;;;;8.77;6.93;;;5.30;99.90;;;;;;5062037;28;20359;-54
2023/12/07 02:27:06;;;;;;;8.27;6.57;;;5.30;99.90;;;;;;5063548;28;20209;-53
2023/12/07 02:29:33;;;;;;;8.70;7.17;;;5.30;99.90;;;;;;5062365;28;20259;-54
2023/12/07 02:31:59;;;;;;;9.37;6.67;;;5.30;99.90;;;;;;5060213;28;20287;-54
2023/12/07 02:34:26;;;;;;;8.53;6.80;;;5.30;99.90;;;;;;5060699;28;20236;-54
2023/12/07 02:36:57;;;;;;;9.37;7.30;;;5.30;99.90;;;;;;5064067;28;20205;-53
2023/12/07 02:39:25;;;;;;;8.53;6.57;;;5.20;99.90;;;;;;5063679;28;20628;-54
2023/12/07 02:41:53;;;;;;;8.67;6.77;;;5.20;99.90;;;;;;5059970;28;20233;-55
2023/12/07 02:44:21;;;;;;;10.17;7.57;;;5.20;99.90;;;;;;5059925;28;20210;-54
2023/12/07 02:46:48;;;;;;;8.97;7.47;;;5.10;99.90;;;;;;5063008;28;20231;-54
2023/12/07 02:49:15;;;;;;;9.03;7.23;;;5.20;99.90;;;;;;5063335;28;20221;-55
2023/12/07 02:51:41;;;;;;;11.67;7.37;;;5.20;99.90;;;;;;5060588;28;20722;-54
2023/12/07 02:54:08;;;;;;;10.13;7.67;;;5.20;99.90;;;;;;5059709;28;20593;-54
2023/12/07 02:56:35;;;;;;;8.07;6.80;;;5.10;99.90;;;;;;5061202;28;20753;-54
2023/12/07 02:59:01;;;;;;;8.70;6.97;;;5.10;99.90;;;;;;5062891;28;20209;-54
2023/12/07 03:01:29;;;;;;;8.80;6.67;;;5.10;99.90;;;;;;5062470;28;20229;-54
2023/12/07 03:03:56;;;;;;;9.33;6.90;;;5.10;99.90;;;;;;5059714;28;20210;-53
2023/12/07 03:06:22;;;;;;;11.03;7.50;;;5.00;99.90;;;;;;5059590;28;20214;-54
2023/12/07 03:08:49;;;;;;;11.47;7.67;;;5.10;99.90;;;;;;5062219;28;20278;-54
2023/12/07 03:11:16;;;;;;;9.57;7.40;;;5.00;99.90;;;;;;5062763;28;20581;-53
2023/12/07 03:13:42;;;;;;;8.47;7.57;;;5.00;99.90;;;;;;5060046;28;20201;-53
2023/12/07 03:16:10;;;;;;;6.80;6.10;;;5.00;99.90;;;;;;5059574;28;20260;-54
2023/12/07 03:18:38;;;;;;;8.60;7.00;;;5.00;99.90;;;;;;5060806;28;20715;-54
2023/12/07 03:21:05;;;;;;;8.20;6.47;;;5.00;99.90;;;;;;5062861;28;20200;-53
2023/12/07 03:23:32;;;;;;;8.13;6.77;;;5.00;99.90;;;;;;5061859;28;20209;-54
2023/12/07 03:25:59;;;;;;;9.77;7.03;;;4.90;99.90;;;;;;5059454;28;20221;-54
2023/12/07 03:28:25;;;;;;;10.30;7.00;;;4.90;99.90;;;;;;5058856;28;20201;-53
2023/12/07 03:30:52;;;;;;;9.43;6.97;;;4.90;99.90;;;;;;5062468;28;20201;-54
2023/12/07 03:33:19;;;;;;;8.30;6.93;;;4.80;99.90;;;;;;5062749;28;20205;-54
2023/12/07 03:35:47;;;;;;;9.03;7.13;;;4.70;99.90;;;;;;5059805;28;20217;-54
2023/12/07 03:38:13;;;;;;;10.80;7.50;;;4.50;99.90;;;;;;5058942;28;20471;-55
2023/12/07 03:40:40;;;;;;;8.23;6.90;;;4.50;99.90;;;;;;5061072;28;20206;-53
2023/12/07 03:43:07;;;;;;;8.63;7.57;;;4.40;99.90;;;;;;5062094;28;20658;-53
2023/12/07 03:45:33;;;;;;;10.00;7.20;;;4.30;99.90;;;;;;5061374;28;20217;-53
2023/12/07 03:48:00;;;;;;;9.57;7.50;;;4.10;99.90;;;;;;5059023;28;20339;-53
2023/12/07 03:50:27;;;;;;;11.17;8.40;;;4.00;99.90;;;;;;5058795;28;20555;-53
2023/12/07 03:52:55;;;;;;;8.63;7.07;;;3.90;99.90;;;;;;5062449;28;20308;-54
2023/12/07 03:55:21;;;;;;;13.03;7.53;;;3.80;99.90;;;;;;5062352;28;20197;-53
2023/12/07 03:57:48;;;;;;;8.93;7.40;;;3.70;99.90;;;;;;5059061;28;20742;-53
2023/12/07 04:00:15;;;;;;;10.37;7.90;;;3.70;99.90;;;;;;5059213;28;20205;-54
2023/12/07 04:02:42;;;;;;;10.97;8.87;;;3.70;99.90;;;;;;5060852;28;20221;-53
2023/12/07 04:05:09;;;;;;;12.50;7.83;;;3.80;99.90;;;;;;5062282;28;20229;-53
2023/12/07 04:07:35;;;;;;;10.23;8.07;;;3.80;99.90;;;;;;5060781;28;20288;-54
2023/12/07 04:10:05;;;;;;;11.10;8.07;;;3.90;99.90;;;;;;5058558;28;20640;-52
2023/12/07 04:12:32;;;;;;;11.73;8.50;;;3.90;99.90;;;;;;5059669;28;20221;-53
2023/12/07 04:14:59;;;;;;;8.90;6.20;;;3.90;99.90;;;;;;5062207;28;20197;-53
2023/12/07 04:17:25;;;;;;;7.20;5.70;;;3.90;99.90;;;;;;5061849;28;20269;-54
2023/12/07 04:19:52;;;;;;;7.60;5.80;;;3.90;99.90;;;;;;5059999;28;20217;-53
2023/12/07 04:22:19;;;;;;;8.20;5.27;;;3.90;99.90;;;;;;5062612;28;20675;-53
2023/12/07 04:24:45;;;;;;;7.23;5.50;;;3.80;99.90;;;;;;5065436;28;20267;-52
2023/12/07 04:27:13;;;;;;;12.90;8.07;;;3.80;99.90;;;;;;5066613;28;20587;-52
2023/12/07 04:29:40;;;;;;;16.73;10.43;;;3.80;99.90;;;;;;5064566;28;20201;-52
2023/12/07 04:32:08;;;;;;;14.80;10.23;;;3.80;99.90;;;;;;5062608;28;20221;-54
2023/12/07 04:34:34;;;;;;;14.53;9.43;;;3.80;99.90;;;;;;5063554;28;20282;-52
2023/12/07 04:37:01;;;;;;;12.30;8.93;;;3.80;99.90;;;;;;5065801;28;20227;-52
2023/12/07 04:39:28;;;;;;;13.23;9.10;;;3.70;99.90;;;;;;5065967;28;20201;-54
2023/12/07 04:41:55;;;;;;;11.27;8.73;;;3.70;99.90;;;;;;5062358;28;20228;-52
2023/12/07 04:44:25;;;;;;;8.77;6.97;;;3.60;99.90;;;;;;5062296;28;20202;-53
2023/12/07 04:46:52;;;;;;;8.07;5.67;;;3.50;99.90;;;;;;5065532;28;20263;-53
2023/12/07 04:49:18;;;;;;;10.27;6.50;;;3.50;99.90;;;;;;5065446;28;20686;-56
2023/12/07 04:51:46;;;;;;;7.37;6.03;;;3.40;99.90;;;;;;5063004;28;20373;-53
2023/12/07 04:54:14;;;;;;;10.07;7.80;;;3.30;99.90;;;;;;5062440;28;20205;-56
2023/12/07 04:56:41;;;;;;;10.97;7.63;;;3.20;99.90;;;;;;5063962;28;20202;-55
2023/12/07 04:59:08;;;;;;;11.27;8.50;;;3.10;99.90;;;;;;5065600;28;20201;-54
2023/12/07 05:01:36;;;;;;;10.23;7.97;;;2.90;99.90;;;;;;5064579;28;20221;-55
2023/12/07 05:04:03;;;;;;;10.67;7.93;;;2.80;99.90;;;;;;5062031;28;20225;-55
2023/12/07 05:06:30;;;;;;;8.63;6.70;;;2.80;99.90;;;;;;5061954;28;20776;-55
2023/12/07 05:08:56;;;;;;;10.07;6.93;;;2.80;99.90;;;;;;5064921;28;20201;-54
2023/12/07 05:11:23;;;;;;;10.20;7.60;;;2.80;99.90;;;;;;5064955;28;20825;-56
2023/12/07 05:13:50;;;;;;;10.67;7.40;;;2.80;99.90;;;;;;5062226;28;20680;-54
2023/12/07 05:16:16;;;;;;;10.07;7.43;;;2.80;99.90;;;;;;5061809;28;20194;-55
2023/12/07 05:18:45;;;;;;;12.33;8.13;;;2.70;99.90;;;;;;5063273;28;20284;-55
2023/12/07 05:21:11;;;;;;;9.37;7.20;;;2.70;99.90;;;;;;5065045;28;20228;-55
2023/12/07 05:23:38;;;;;;;9.63;7.57;;;2.70;99.90;;;;;;5063554;28;20221;-54
2023/12/07 05:26:07;;;;;;;10.00;7.93;;;2.60;99.90;;;;;;5062581;28;20221;-55
2023/12/07 05:28:34;;;;;;;9.17;7.70;;;2.60;99.90;;;;;;5062486;28;20775;-55
2023/12/07 05:31:01;;;;;;;9.03;7.63;;;2.50;99.90;;;;;;5064871;28;20205;-55
2023/12/07 05:33:28;;;;;;;11.30;7.73;;;2.60;99.90;;;;;;5064807;28;20208;-56
2023/12/07 05:35:56;;;;;;;12.20;7.53;;;2.60;99.90;;;;;;5064969;28;20193;-55
2023/12/07 05:38:22;;;;;;;12.53;7.90;;;2.60;99.90;;;;;;5064696;28;20209;-54
2023/12/07 05:40:49;;;;;;;10.60;6.80;;;2.60;99.90;;;;;;5061913;28;20209;-56
2023/12/07 05:43:16;;;;;;;10.73;7.07;;;2.70;99.90;;;;;;5061117;28;20204;-55
2023/12/07 05:45:42;;;;;;;12.07;8.27;;;2.70;99.90;;;;;;5062459;28;20598;-55
2023/12/07 05:48:09;;;;;;;10.80;8.30;;;2.70;99.90;;;;;;5064446;28;20334;-55
2023/12/07 05:50:39;;;;;;;13.37;8.83;;;2.80;99.90;;;;;;5063457;28;20262;-56
2023/12/07 05:53:07;;;;;;;10.80;7.87;;;2.90;99.90;;;;;;5061140;28;20225;-54
2023/12/07 05:55:34;;;;;;;9.60;7.47;;;2.90;99.90;;;;;;5061498;28;20205;-55
2023/12/07 05:58:00;;;;;;;9.47;7.57;;;3.00;99.90;;;;;;5064251;28;20200;-55
2023/12/07 06:00:27;;;;;;;9.47;7.33;;;3.00;99.90;;;;;;5064205;28;20204;-56
2023/12/07 06:02:54;;;;;;;13.83;8.07;;;3.00;99.90;;;;;;5060669;28;20221;-55
2023/12/07 06:05:20;;;;;;;12.33;8.67;;;3.10;99.90;;;;;;5060736;28;20212;-56
2023/12/07 06:07:47;;;;;;;12.87;8.37;;;3.10;99.90;;;;;;5062726;28;20641;-56
2023/12/07 06:10:16;;;;;;;10.87;8.43;;;3.20;99.90;;;;;;5064272;28;20210;-56
2023/12/07 06:12:43;;;;;;;11.47;8.40;;;3.20;99.90;;;;;;5062569;28;20221;-54
2023/12/07 06:15:10;;;;;;;10.00;8.40;;;3.20;99.90;;;;;;5060810;28;20259;-55
2023/12/07 06:17:37;;;;;;;12.60;8.60;;;3.20;99.90;;;;;;5061425;28;20206;-52
2023/12/07 06:20:04;;;;;;;11.23;8.73;;;3.20;99.90;;;;;;5064196;28;20247;-50
2023/12/07 06:22:31;;;;;;;12.27;8.93;;;3.20;99.90;;;;;;5063593;28;20229;-52
2023/12/07 06:24:58;;;;;;;10.30;7.90;;;3.10;99.90;;;;;;5060434;28;20205;-51
2023/12/07 06:27:26;;;;;;;13.67;9.00;;;3.00;99.90;;;;;;5060095;28;20256;-51
2023/12/07 06:29:52;;;;;;;12.03;9.40;;;2.90;99.90;;;;;;5063435;28;20204;-51
2023/12/07 06:32:19;;;;;;;9.87;8.23;;;2.80;99.90;;;;;;5063690;28;20221;-54
2023/12/07 06:34:46;;;;;;;12.00;8.70;;;2.70;99.90;;;;;;5061505;28;20209;-51
2023/12/07 06:37:12;;;;;;;11.63;8.23;;;2.60;99.90;;;;;;5059946;28;20198;-51
2023/12/07 06:39:40;;;;;;;11.93;8.57;;;2.50;99.90;;;;;;5060900;28;20695;-51
2023/12/07 06:42:07;;;;;;;11.67;8.70;;;2.50;99.90;;;;;;5062936;28;20231;-52
2023/12/07 06:44:35;;;;;;;13.33;8.67;;;2.40;99.90;;;;;;5062758;28;20201;-51
2023/12/07 06:47:04;;;;;;;14.17;9.37;;;2.30;99.90;;;;;;5059749;28;20623;-51
2023/12/07 06:49:31;;;;;;;13.57;9.27;;;2.30;99.90;;;;;;5059780;28;20202;-52
2023/12/07 06:51:57;;;;;;;13.97;9.90;;;2.30;99.90;;;;;;5059936;28;20316;-50
2023/12/07 06:54:24;;;;;;;12.03;9.97;;;2.30;99.90;;;;;;5059814;28;20201;-52
2023/12/07 06:56:51;;;;;;;13.00;10.27;;;2.30;99.90;;;;;;5062318;28;20201;-51
2023/12/07 06:59:17;;;;;;;13.47;10.07;;;2.30;99.90;;;;;;5063437;28;20479;-50
2023/12/07 07:01:45;;;;;;;13.30;10.20;;;2.30;99.90;;;;;;5061439;28;20323;-53
2023/12/07 07:04:12;;;;;;;13.37;10.23;;;2.30;99.90;;;;;;5059683;28;20200;-52
2023/12/07 07:06:39;;;;;;;14.10;9.70;;;2.30;99.90;;;;;;5060541;28;20218;-52
2023/12/07 07:09:05;;;;;;;13.40;10.57;;;2.30;99.90;;;;;;5062847;28;20201;-51
2023/12/07 07:11:32;;;;;;;13.63;9.50;;;2.30;99.90;;;;;;5062520;28;20686;-54
2023/12/07 07:13:59;;;;;;;14.50;10.60;;;2.30;99.90;;;;;;5059501;28;20240;-50
2023/12/07 07:16:25;;;;;;;11.30;9.27;;;2.30;99.90;;;;;;5059603;28;20259;-51
2023/12/07 07:18:53;;;;;;;16.07;9.87;;;2.20;99.90;;;;;;5061905;28;20205;-53
2023/12/07 07:21:20;;;;;;;17.63;10.40;;;2.30;99.90;;;;;;5062654;28;20602;-52
2023/12/07 07:23:47;;;;;;;12.50;9.13;;;2.30;99.90;;;;;;5060609;28;20236;-51
2023/12/07 07:26:16;;;;;;;11.50;9.17;;;2.40;99.90;;;;;;5059332;28;20222;-49
2023/12/07 07:28:43;;;;;;;12.10;8.87;;;2.50;99.90;;;;;;5060704;28;20197;-50
2023/12/07 07:31:10;;;;;;;14.87;9.40;;;2.60;99.90;;;;;;5062390;28;20316;-50
2023/12/07 07:33:37;;;;;;;12.23;8.90;;;2.60;99.90;;;;;;5062055;28;20201;-51
2023/12/07 07:36:05;;;;;;;15.43;9.80;;;2.60;99.90;;;;;;5059229;28;20198;-50
2023/12/07 07:38:32;;;;;;;13.77;9.50;;;2.70;99.90;;;;;;5060395;28;20626;-50
2023/12/07 07:40:59;;;;;;;10.60;8.90;;;2.70;99.90;;;;;;5059907;28;20570;-49
2023/12/07 07:43:25;;;;;;;13.97;9.27;;;2.70;99.90;;;;;;5059086;28;20664;-49
2023/12/07 07:45:52;;;;;;;15.27;9.37;;;2.70;99.90;;;;;;5061579;28;20213;-50
2023/12/07 07:48:19;;;;;;;13.67;9.60;;;2.70;99.90;;;;;;5062455;28;20228;-53
2023/12/07 07:50:45;;;;;;;12.97;9.37;;;2.70;99.90;;;;;;5060276;28;20625;-53
2023/12/07 07:53:13;;;;;;;9.87;8.30;;;2.70;99.90;;;;;;5058908;28;20201;-53
2023/12/07 07:55:40;;;;;;;12.43;9.40;;;2.70;99.90;;;;;;5063942;28;20209;-53
2023/12/07 07:58:07;;;;;;;10.73;8.57;;;2.70;99.90;;;;;;5066483;28;20225;-51
2023/12/07 08:00:34;;;;;;;12.83;9.27;;;2.80;99.90;;;;;;5066485;28;20246;-52
2023/12/07 08:03:01;;;;;;;14.50;9.50;;;2.70;99.90;;;;;;5062675;28;20221;-53
2023/12/07 08:05:27;;;;;;;11.53;9.00;;;2.70;99.90;;;;;;5062940;28;20197;-54
2023/12/07 08:07:55;;;;;;;13.07;9.03;;;2.80;99.90;;;;;;5065458;28;20274;-53
2023/12/07 08:10:24;;;;;;;12.57;8.90;;;2.90;99.90;;;;;;5066434;28;20696;-54
2023/12/07 08:12:50;;;;;;;11.40;9.07;;;3.00;99.90;;;;;;5064029;28;20235;-54
2023/12/07 08:15:17;;;;;;;15.00;9.17;;;3.00;99.90;;;;;;5062752;28;20202;-51
2023/12/07 08:17:44;;;;;;;11.50;8.53;;;3.00;99.90;;;;;;5063834;28;20251;-53
2023/12/07 08:20:12;;;;;;;12.17;9.53;;;3.00;99.90;;;;;;5066356;28;20284;-54
2023/12/07 08:22:40;;;;;;;12.23;9.70;;;3.10;99.90;;;;;;5064970;28;20327;-53
2023/12/07 08:25:09;;;;;;;11.57;9.23;;;3.10;99.90;;;;;;5062677;28;20659;-52
2023/12/07 08:27:38;;;;;;;13.37;8.80;;;3.20;99.90;;;;;;5062597;28;20217;-53
2023/12/07 08:30:06;;;;;;;13.13;8.83;;;3.30;99.90;;;;;;5066169;28;20606;-54
2023/12/07 08:32:32;;;;;;;10.33;8.70;;;3.40;99.90;;;;;;5066034;28;20225;-53
2023/12/07 08:34:59;;;;;;;11.73;9.07;;;3.50;99.90;;;;;;5062419;28;20232;-54
2023/12/07 08:37:26;;;;;;;12.67;9.37;;;3.60;99.90;;;;;;5062232;28;20206;-53
2023/12/07 08:39:52;;;;;;;12.90;8.93;;;3.70;99.90;;;;;;5064973;28;20626;-54
2023/12/07 08:42:19;;;;;;;13.07;9.27;;;3.80;99.90;;;;;;5065581;28;20228;-53
2023/12/07 08:44:47;;;;;;;12.97;9.13;;;3.90;99.90;;;;;;5064315;28;20303;-53
2023/12/07 08:47:14;;;;;;;12.23;8.57;;;3.90;99.90;;;;;;5061965;28;20217;-53
2023/12/07 08:49:40;;;;;;;10.83;8.40;;;4.00;99.90;;;;;;5062768;28;20252;-54
2023/12/07 08:52:07;;;;;;;13.53;8.77;;;4.00;99.90;;;;;;5065518;28;20228;-55
2023/12/07 08:54:35;;;;;;;13.13;8.53;;;4.10;99.90;;;;;;5065301;28;20201;-52
2023/12/07 08:57:03;;;;;;;10.57;8.73;;;4.10;99.90;;;;;;5065379;28;20201;-53
2023/12/07 08:59:30;;;;;;;46.40;35.00;;;4.20;99.90;;;;;;5065117;28;20330;-56
2023/12/07 09:01:58;;;;;;;12.00;9.37;;;4.20;99.90;;;;;;5062342;28;20225;-54
2023/12/07 09:04:24;;;;;;;13.73;8.80;;;4.30;99.90;;;;;;5062052;28;20202;-53
2023/12/07 09:06:51;;;;;;;11.53;8.50;;;4.40;99.90;;;;;;5063217;28;20247;-55
2023/12/07 09:09:18;;;;;;;12.20;8.07;;;4.40;99.90;;;;;;5064953;28;20281;-55
2023/12/07 09:11:44;;;;;;;10.20;8.37;;;4.40;99.90;;;;;;5063552;28;20221;-53
2023/12/07 09:14:11;;;;;;;11.20;8.13;;;4.30;99.90;;;;;;5061575;28;20201;-53
2023/12/07 09:16:44;;;;;;;12.00;8.77;;;4.20;99.90;;;;;;5061771;28;20717;-53
2023/12/07 09:19:13;;;;;;;14.07;8.57;;;4.10;99.90;;;;;;5064978;28;20229;-53
2023/12/07 09:21:40;;;;;;;10.30;7.90;;;4.00;99.90;;;;;;5064171;28;20282;-54
2023/12/07 09:24:08;;;;;;;10.20;7.77;;;3.90;99.90;;;;;;5061428;28;20202;-54
2023/12/07 09:26:36;;;;;;;12.37;7.80;;;4.00;99.90;;;;;;5061236;28;20578;-53
2023/12/07 09:29:03;;;;;;;11.40;7.37;;;4.00;99.90;;;;;;5061462;28;20228;-53
2023/12/07 09:31:30;;;;;;;10.30;7.93;;;4.00;99.90;;;;;;5061566;28;20261;-52
2023/12/07 09:33:56;;;;;;;10.07;7.77;;;4.10;99.90;;;;;;5064301;28;20220;-52
2023/12/07 09:36:26;;;;;;;11.23;8.10;;;4.10;99.90;;;;;;5064827;28;20220;-53
2023/12/07 09:38:53;;;;;;;10.57;8.43;;;4.20;99.90;;;;;;5062297;28;20208;-53
2023/12/07 09:41:21;;;;;;;9.93;8.13;;;4.20;99.90;;;;;;5061169;28;20229;-55
2023/12/07 09:43:47;;;;;;;12.20;8.47;;;4.30;99.90;;;;;;5062863;28;20206;-53
2023/12/07 09:46:15;;;;;;;12.37;8.87;;;4.40;99.90;;;;;;5064766;28;20213;-54
2023/12/07 09:48:45;;;;;;;9.17;7.73;;;4.40;99.90;;;;;;5063721;28;20284;-53
2023/12/07 09:51:12;;;;;;;9.73;7.70;;;4.40;99.90;;;;;;5061100;28;20312;-54
2023/12/07 09:53:43;;;;;;;10.67;7.57;;;4.40;99.90;;;;;;5060984;28;20284;-55
2023/12/07 09:56:10;;;;;;;9.67;7.37;;;4.50;99.90;;;;;;5064680;28;20230;-53
2023/12/07 09:58:37;;;;;;;8.53;7.07;;;4.50;99.90;;;;;;5064175;28;20247;-49
2023/12/07 10:01:05;;;;;;;12.57;7.50;;;4.60;99.90;;;;;;5060895;28;20202;-54
2023/12/07 10:03:31;;;;;;;9.40;6.93;;;4.70;99.90;;;;;;5061083;28;20611;-53
2023/12/07 10:05:59;;;;;;;9.37;7.97;;;4.80;99.90;;;;;;5063722;28;20217;-54
2023/12/07 10:08:27;;;;;;;10.17;7.03;;;4.90;99.90;;;;;;5063757;28;20279;-53
2023/12/07 10:11:04;;;;;;;9.80;7.43;;;5.00;99.90;;;;;;5061631;28;20239;-54
2023/12/07 10:13:32;;;;;;;10.00;7.60;;;5.00;99.90;;;;;;5060813;28;20205;-54
2023/12/07 10:16:10;;;;;;;9.80;6.97;;;5.00;99.90;;;;;;5063676;28;20232;-53
2023/12/07 10:18:37;;;;;;;9.40;6.73;;;5.00;99.90;;;;;;5062675;28;20739;-54
2023/12/07 10:23:31;;;;;;;8.33;6.33;;;5.30;99.90;;;;;;5093511;22;20236;-56
2023/12/07 10:25:59;;;;;;;7.33;6.10;;;5.40;99.90;;;;;;5061517;28;20225;-59
2023/12/07 10:28:27;;;;;;;8.47;5.63;;;5.60;99.90;;;;;;5060428;28;20297;-56
2023/12/07 10:30:54;;;;;;;7.90;5.77;;;5.70;99.90;;;;;;5062634;28;20208;-56
2023/12/07 10:33:20;;;;;;;10.40;5.83;;;5.80;99.90;;;;;;5082609;28;20227;-57
2023/12/07 10:35:49;;;;;;;8.27;5.80;;;5.70;99.90;;;;;;5082765;28;20258;-57
2023/12/07 10:38:15;;;;;;;9.40;5.83;;;5.80;99.90;;;;;;5080307;28;20217;-57
2023/12/07 10:40:42;;;;;;;7.97;5.53;;;5.80;99.90;;;;;;5080724;28;20270;-57
2023/12/07 10:43:10;;;;;;;7.10;5.67;;;5.80;99.90;;;;;;5083649;28;20224;-57
2023/12/07 10:45:38;;;;;;;6.87;5.33;;;5.90;99.90;;;;;;5084024;28;20197;-57
2023/12/07 10:48:07;;;;;;;6.83;5.47;;;6.00;99.90;;;;;;5080346;28;20324;-58
2023/12/07 10:50:37;;;;;;;10.17;5.27;;;6.10;99.90;;;;;;5080238;28;20201;-58
2023/12/07 10:53:10;;;;;;;9.13;5.90;;;6.20;99.90;;;;;;5083507;28;20221;-57
2023/12/07 10:55:47;;;;;;;9.47;5.93;;;6.40;99.90;;;;;;5084054;28;20231;-57
2023/12/07 10:58:15;;;;;;;9.60;6.30;;;6.40;99.90;;;;;;5079905;28;20287;-57
2023/12/07 11:00:46;;;;;;;8.27;5.57;;;6.50;99.90;;;;;;5080703;28;20621;-57
2023/12/07 11:03:17;;;;;;;6.50;5.40;;;6.70;99.90;;;;;;5083489;28;20216;-57
2023/12/07 11:05:45;;;;;;;7.67;5.40;;;6.70;99.90;;;;;;5082993;28;20250;-56
2023/12/07 11:08:19;;;;;;;6.90;5.43;;;6.90;99.90;;;;;;5079452;28;20748;-59
2023/12/07 11:10:51;;;;;;;6.93;5.10;;;6.90;99.90;;;;;;5080677;28;20211;-57
2023/12/07 11:13:23;;;;;;;7.27;4.80;;;6.90;99.90;;;;;;5083452;28;20220;-58
2023/12/07 11:15:51;;;;;;;6.37;4.67;;;7.00;99.90;;;;;;5081890;28;20204;-58
2023/12/07 11:18:18;;;;;;;6.83;5.30;;;7.00;99.90;;;;;;5079488;28;20659;-58
2023/12/07 11:20:47;;;;;;;8.10;5.33;;;7.00;99.90;;;;;;5080827;28;20284;-57
2023/12/07 11:23:17;;;;;;;7.83;5.00;;;7.10;99.90;;;;;;5083180;28;20228;-57
2023/12/07 11:25:44;;;;;;;7.77;4.87;;;7.20;99.90;;;;;;5082879;28;20233;-57
2023/12/07 11:28:12;;;;;;;6.50;4.70;;;7.20;99.90;;;;;;5079458;28;20225;-57
2023/12/07 11:30:42;;;;;;;7.50;5.30;;;7.20;99.90;;;;;;5079636;28;20216;-57
2023/12/07 11:33:12;;;;;;;7.27;5.00;;;7.20;99.90;;;;;;5079337;28;20221;-57
2023/12/07 11:36:06;;;;;;;6.33;5.10;;;7.20;99.90;;;;;;5079575;28;20200;-57
2023/12/07 11:38:33;;;;;;;5.60;4.37;;;7.30;99.90;;;;;;5079711;28;20250;-57
2023/12/07 11:41:01;;;;;;;9.03;5.43;;;7.20;99.90;;;;;;5082481;28;20258;-57
2023/12/07 11:43:46;;;;;;;8.37;5.20;;;7.20;99.90;;;;;;5083169;28;20269;-58
2023/12/07 11:46:15;;;;;;;8.63;4.90;;;7.20;99.90;;;;;;5076644;28;20278;-68
2023/12/07 11:48:49;;;;;;;6.13;4.70;;;7.30;99.90;;;;;;5079930;28;20299;-64
2023/12/07 11:51:17;;;;;;;9.27;5.07;;;7.30;99.90;;;;;;5082839;28;20204;-66
2023/12/07 11:53:44;;;;;;;6.53;4.70;;;7.40;99.90;;;;;;5082684;28;20200;-66
2023/12/07 11:56:13;;;;;;;5.37;4.40;;;7.40;99.90;;;;;;5078963;28;20200;-67
2023/12/07 11:58:39;;;;;;;8.70;4.57;;;7.40;99.90;;;;;;5078795;28;20242;-65
2023/12/07 12:01:07;;;;;;;7.00;4.23;;;7.30;99.90;;;;;;5079537;28;20209;-65
2023/12/07 12:03:33;;;;;;;7.27;4.60;;;7.10;99.90;;;;;;5079489;28;20208;-67
2023/12/07 12:06:05;;;;;;;6.07;4.00;;;7.10;99.90;;;;;;5081661;28;20209;-67
2023/12/07 12:08:32;;;;;;;5.00;3.83;;;7.30;99.90;;;;;;5082536;28;20216;-66
2023/12/07 12:10:59;;;;;;;7.40;4.07;;;7.30;99.90;;;;;;5079762;28;20211;-68
2023/12/07 12:13:28;;;;;;;6.73;4.30;;;7.40;99.90;;;;;;5078977;28;20677;-68
2023/12/07 12:15:56;;;;;;;4.80;3.87;;;7.50;99.90;;;;;;5081658;28;20239;-69
2023/12/07 12:18:25;;;;;;;7.43;3.77;;;7.60;99.90;;;;;;5082906;28;20279;-67
2023/12/07 12:20:52;;;;;;;6.00;3.97;;;7.60;99.90;;;;;;5081331;28;20231;-67
2023/12/07 12:23:20;;;;;;;4.23;3.60;;;7.60;99.90;;;;;;5078912;28;20317;-68
2023/12/07 12:25:47;;;;;;;5.37;4.10;;;7.70;99.90;;;;;;5080589;28;20248;-71
2023/12/07 12:28:16;;;;;;;5.37;3.90;;;7.80;99.90;;;;;;5083128;28;20216;-67
2023/12/07 12:30:44;;;;;;;5.80;3.93;;;7.70;99.90;;;;;;5079232;28;20201;-68
2023/12/07 12:33:10;;;;;;;4.23;3.30;;;7.80;99.90;;;;;;5090192;28;21248;-69
2023/12/07 12:35:37;;;;;;;3.90;3.10;;;7.80;99.90;;;;;;5076089;28;20201;-70
2023/12/07 12:38:11;;;;;;;7.03;3.70;;;7.50;99.90;;;;;;5087927;28;20205;-69
2023/12/07 12:40:41;;;;;;;3.30;2.97;;;7.50;99.90;;;;;;5080396;28;20205;-70
2023/12/07 12:43:08;;;;;;;6.60;3.13;;;7.50;99.90;;;;;;5086806;28;20227;-69
2023/12/07 12:45:35;;;;;;;5.23;3.53;;;7.60;99.90;;;;;;5087183;28;20204;-67
2023/12/07 12:48:02;;;;;;;6.20;3.37;;;7.80;99.90;;;;;;5083421;28;20220;-63
2023/12/07 12:50:36;;;;;;;4.87;3.30;;;7.90;99.90;;;;;;5082835;28;20197;-61
2023/12/07 12:53:04;;;;;;;8.63;3.37;;;7.80;99.90;;;;;;5086147;28;20258;-71
2023/12/07 12:55:33;;;;;;;5.80;3.37;;;7.70;99.90;;;;;;5086525;28;20204;-66
2023/12/07 12:58:03;;;;;;;6.80;3.20;;;7.80;99.90;;;;;;5083989;28;20291;-66